William J. Weber — WDC6537 — position and weather

sailwx.info

Track history (hours):
 
Tides and Currents Weather Stations Pressure Air Temp Water Temp Dewpoint Dewpoint Depression Visibility Wind Speed Wind Dir Waves Ship Positions

William J. Weber

Owner: AMERICAN COMMERCIAL BARGE LINE LLC, Jefferesonville, IN. More information available from US FCC via Universal Licensing System and Coast Guard Vessel Documentation Center.

Last reported at 2015-Feb-28 13:13 UTC. Time now 2015-Mar-03 07:25 UTC.
Position N 29°27' W 094°51'.

Length 23 m.

Type: Towing. MMSI: 367057640.

Date/timePositionNaut miles runAvg speedWind from/ knotsBaromVisibWave heightAir tempDewpointWater temp
2015-Feb-28 13:13N 29°27' W 094°51'5 7.8
2015-Feb-28 12:33N 29°32' W 094°53'8 7.5
2015-Feb-28 11:33N 29°38' W 094°58'6 6.2
2015-Feb-28 10:33N 29°44' W 095°01'0 0.0
2015-Feb-28 09:32N 29°44' W 095°01'0 0.0
2015-Feb-28 08:31N 29°44' W 095°01'0 0.0
2015-Feb-28 07:33N 29°44' W 095°01'0 0.4
2015-Feb-28 06:33N 29°44' W 095°01'0 0.0
2015-Feb-28 05:33N 29°44' W 095°01'0 0.0
2015-Feb-28 04:33N 29°44' W 095°01'0 0.0
2015-Feb-28 03:33N 29°44' W 095°01'0 0.0
2015-Feb-28 02:33N 29°44' W 095°01'3 2.7
2015-Feb-28 01:33N 29°45' W 095°04'2 0.8
2015-Feb-27 23:18N 29°46' W 095°06'1 0.2
2015-Feb-27 20:33N 29°46' W 095°05'10 7.0
2015-Feb-27 19:10N 29°44' W 095°17'1 1.5
2015-Feb-27 18:33N 29°45' W 095°17'0 0.0
2015-Feb-27 17:33N 29°45' W 095°17'0 0.0
2015-Feb-27 16:33N 29°45' W 095°17'0 0.0
2015-Feb-27 15:33N 29°45' W 095°17'0 0.0
2015-Feb-27 14:33N 29°45' W 095°17'4 0.3
2015-Feb-27 01:23N 29°44' W 095°13'3 4.0
2015-Feb-27 00:32N 29°44' W 095°09'3 3.5
2015-Feb-26 23:33N 29°46' W 095°05'1 0.7
2015-Feb-26 22:29N 29°46' W 095°06'1 0.7
2015-Feb-26 21:33N 29°46' W 095°06'0 0.0
2015-Feb-26 20:33N 29°46' W 095°05'0 0.0
2015-Feb-26 19:33N 29°46' W 095°05'0 0.0
2015-Feb-26 18:33N 29°46' W 095°05'0 0.0
2015-Feb-26 17:33N 29°46' W 095°05'0 0.0
2015-Feb-26 16:33N 29°46' W 095°05'0 0.0
2015-Feb-26 15:33N 29°46' W 095°05'0 0.0
2015-Feb-26 14:33N 29°46' W 095°05'0 0.0
2015-Feb-26 13:33N 29°46' W 095°05'0 0.0
2015-Feb-26 12:33N 29°46' W 095°05'0 0.0
2015-Feb-26 11:33N 29°46' W 095°05'0 0.0
2015-Feb-26 10:33N 29°46' W 095°05'0 0.0
2015-Feb-26 09:33N 29°46' W 095°05'0 0.0
2015-Feb-26 08:33N 29°46' W 095°05'0 0.0
2015-Feb-26 07:33N 29°46' W 095°05'0 0.0
2015-Feb-26 06:33N 29°46' W 095°05'0 0.0
2015-Feb-26 05:33N 29°46' W 095°05'0 0.0
2015-Feb-26 04:33N 29°46' W 095°05'0 0.0
2015-Feb-26 03:33N 29°46' W 095°05'0 0.0
2015-Feb-26 02:33N 29°46' W 095°05'0 0.0
2015-Feb-26 01:33N 29°46' W 095°05'0 0.0
2015-Feb-26 00:33N 29°46' W 095°05'1 0.7
2015-Feb-25 23:32N 29°46' W 095°06'0 0.0
2015-Feb-25 22:29N 29°46' W 095°06'0 0.0
2015-Feb-25 21:33N 29°46' W 095°06'0 0.0
2015-Feb-25 20:33N 29°46' W 095°06'0 0.0
2015-Feb-25 19:33N 29°46' W 095°06'0 0.0
2015-Feb-25 18:33N 29°46' W 095°06'0 0.0
2015-Feb-25 17:33N 29°46' W 095°06'0 0.0
2015-Feb-25 16:33N 29°46' W 095°06'0 0.0
2015-Feb-25 15:33N 29°46' W 095°06'0 0.0
2015-Feb-25 14:32N 29°46' W 095°06'1 0.7
2015-Feb-25 13:33N 29°46' W 095°05'0 0.0
2015-Feb-25 12:33N 29°46' W 095°05'0 0.0
2015-Feb-25 11:33N 29°46' W 095°05'0 0.0
2015-Feb-25 10:33N 29°46' W 095°05'0 0.0
2015-Feb-25 09:33N 29°46' W 095°05'8 5.5
2015-Feb-25 08:11N 29°44' W 095°14'3 3.8
2015-Feb-25 07:22N 29°45' W 095°17'2 0.2
2015-Feb-24 19:29N 29°44' W 095°15'4 4.2
2015-Feb-24 18:29N 29°45' W 095°11'4 4.6
2015-Feb-24 17:31N 29°45' W 095°06'0 0.2
2015-Feb-24 16:33N 29°45' W 095°06'4 4.3
2015-Feb-24 15:33N 29°44' W 095°01'7 7.2
2015-Feb-24 14:33N 29°37' W 094°57'8 8.3
2015-Feb-24 13:33N 29°30' W 094°52'  
Track history (hours):
 
Tides and Currents Weather Stations Pressure Air Temp Water Temp Dewpoint Dewpoint Depression Visibility Wind Speed Wind Dir Waves Ship Positions

William J. Weber

Owner: AMERICAN COMMERCIAL BARGE LINE LLC, Jefferesonville, IN. More information available from US FCC via Universal Licensing System and Coast Guard Vessel Documentation Center.

Last reported at 2015-Feb-28 13:13 UTC. Time now 2015-Mar-03 07:25 UTC.
Position N 29°27' W 094°51'.

Length 23 m.

Type: Towing. MMSI: 367057640.

Date/timePositionNaut miles runAvg speedWind from/ knotsBaromVisibWave heightAir tempDewpointWater temp
2015-Feb-28 13:13N 29°27' W 094°51'5 7.8
2015-Feb-28 12:33N 29°32' W 094°53'8 7.5
2015-Feb-28 11:33N 29°38' W 094°58'6 6.2
2015-Feb-28 10:33N 29°44' W 095°01'0 0.0
2015-Feb-28 09:32N 29°44' W 095°01'0 0.0
2015-Feb-28 08:31N 29°44' W 095°01'0 0.0
2015-Feb-28 07:33N 29°44' W 095°01'0 0.4
2015-Feb-28 06:33N 29°44' W 095°01'0 0.0
2015-Feb-28 05:33N 29°44' W 095°01'0 0.0
2015-Feb-28 04:33N 29°44' W 095°01'0 0.0
2015-Feb-28 03:33N 29°44' W 095°01'0 0.0
2015-Feb-28 02:33N 29°44' W 095°01'3 2.7
2015-Feb-28 01:33N 29°45' W 095°04'2 0.8
2015-Feb-27 23:18N 29°46' W 095°06'1 0.2
2015-Feb-27 20:33N 29°46' W 095°05'10 7.0
2015-Feb-27 19:10N 29°44' W 095°17'1 1.5
2015-Feb-27 18:33N 29°45' W 095°17'0 0.0
2015-Feb-27 17:33N 29°45' W 095°17'0 0.0
2015-Feb-27 16:33N 29°45' W 095°17'0 0.0
2015-Feb-27 15:33N 29°45' W 095°17'0 0.0
2015-Feb-27 14:33N 29°45' W 095°17'4 0.3
2015-Feb-27 01:23N 29°44' W 095°13'3 4.0
2015-Feb-27 00:32N 29°44' W 095°09'3 3.5
2015-Feb-26 23:33N 29°46' W 095°05'1 0.7
2015-Feb-26 22:29N 29°46' W 095°06'1 0.7
2015-Feb-26 21:33N 29°46' W 095°06'0 0.0
2015-Feb-26 20:33N 29°46' W 095°05'0 0.0
2015-Feb-26 19:33N 29°46' W 095°05'0 0.0
2015-Feb-26 18:33N 29°46' W 095°05'0 0.0
2015-Feb-26 17:33N 29°46' W 095°05'0 0.0
2015-Feb-26 16:33N 29°46' W 095°05'0 0.0
2015-Feb-26 15:33N 29°46' W 095°05'0 0.0
2015-Feb-26 14:33N 29°46' W 095°05'0 0.0
2015-Feb-26 13:33N 29°46' W 095°05'0 0.0
2015-Feb-26 12:33N 29°46' W 095°05'0 0.0
2015-Feb-26 11:33N 29°46' W 095°05'0 0.0
2015-Feb-26 10:33N 29°46' W 095°05'0 0.0
2015-Feb-26 09:33N 29°46' W 095°05'0 0.0
2015-Feb-26 08:33N 29°46' W 095°05'0 0.0
2015-Feb-26 07:33N 29°46' W 095°05'0 0.0
2015-Feb-26 06:33N 29°46' W 095°05'0 0.0
2015-Feb-26 05:33N 29°46' W 095°05'0 0.0
2015-Feb-26 04:33N 29°46' W 095°05'0 0.0
2015-Feb-26 03:33N 29°46' W 095°05'0 0.0
2015-Feb-26 02:33N 29°46' W 095°05'0 0.0
2015-Feb-26 01:33N 29°46' W 095°05'0 0.0
2015-Feb-26 00:33N 29°46' W 095°05'1 0.7
2015-Feb-25 23:32N 29°46' W 095°06'0 0.0
2015-Feb-25 22:29N 29°46' W 095°06'0 0.0
2015-Feb-25 21:33N 29°46' W 095°06'0 0.0
2015-Feb-25 20:33N 29°46' W 095°06'0 0.0
2015-Feb-25 19:33N 29°46' W 095°06'0 0.0
2015-Feb-25 18:33N 29°46' W 095°06'0 0.0
2015-Feb-25 17:33N 29°46' W 095°06'0 0.0
2015-Feb-25 16:33N 29°46' W 095°06'0 0.0
2015-Feb-25 15:33N 29°46' W 095°06'0 0.0
2015-Feb-25 14:32N 29°46' W 095°06'1 0.7
2015-Feb-25 13:33N 29°46' W 095°05'0 0.0
2015-Feb-25 12:33N 29°46' W 095°05'0 0.0
2015-Feb-25 11:33N 29°46' W 095°05'0 0.0
2015-Feb-25 10:33N 29°46' W 095°05'0 0.0
2015-Feb-25 09:33N 29°46' W 095°05'8 5.5
2015-Feb-25 08:11N 29°44' W 095°14'3 3.8
2015-Feb-25 07:22N 29°45' W 095°17'2 0.2
2015-Feb-24 19:29N 29°44' W 095°15'4 4.2
2015-Feb-24 18:29N 29°45' W 095°11'4 4.6
2015-Feb-24 17:31N 29°45' W 095°06'0 0.2
2015-Feb-24 16:33N 29°45' W 095°06'4 4.3
2015-Feb-24 15:33N 29°44' W 095°01'7 7.2
2015-Feb-24 14:33N 29°37' W 094°57'8 8.3
2015-Feb-24 13:33N 29°30' W 094°52'  

Dump ship's entire track history